createdAt,value
2019-05-23T00:01:44.657Z,15.83
2019-05-23T00:04:24.682Z,14.55
2019-05-23T00:06:53.879Z,16.85
2019-05-23T00:09:24.135Z,16.07
2019-05-23T00:11:57.751Z,16.10
2019-05-23T00:14:32.908Z,17.98
2019-05-23T00:17:03.564Z,16.73
2019-05-23T00:19:34.273Z,19.55
2019-05-23T00:22:04.111Z,15.40
2019-05-23T00:24:53.198Z,16.35
2019-05-23T00:27:23.814Z,19.73
2019-05-23T00:29:53.558Z,17.50
2019-05-23T00:32:29.911Z,16.70
2019-05-23T00:34:59.659Z,17.62
2019-05-23T00:37:30.365Z,18.30
2019-05-23T00:39:59.566Z,16.40
2019-05-23T00:42:28.873Z,16.82
2019-05-23T00:44:59.549Z,18.57
2019-05-23T00:47:28.768Z,16.50
2019-05-23T00:49:58.678Z,18.35
2019-05-23T00:52:27.826Z,18.17
2019-05-23T00:54:58.550Z,17.60
2019-05-23T00:57:28.669Z,16.70
2019-05-23T00:59:58.106Z,18.50
2019-05-23T01:02:28.084Z,17.50
2019-05-23T01:04:58.009Z,17.77
2019-05-23T01:07:27.350Z,18.37
2019-05-23T01:09:57.139Z,18.73
2019-05-23T01:12:27.855Z,18.73
2019-05-23T01:14:57.096Z,21.23
2019-05-23T01:17:26.349Z,16.70
2019-05-23T01:19:56.994Z,18.52
2019-05-23T01:22:26.256Z,19.57
2019-05-23T01:24:57.214Z,19.12
2019-05-23T01:27:26.564Z,18.40
2019-05-23T01:29:56.418Z,18.67
2019-05-23T01:32:45.084Z,19.37
2019-05-23T01:35:15.262Z,18.27
2019-05-23T01:37:44.345Z,19.98
2019-05-23T01:40:14.402Z,18.67
2019-05-23T01:42:44.017Z,18.00
2019-05-23T01:45:14.546Z,19.98
2019-05-23T01:47:44.279Z,19.82
2019-05-23T01:50:14.428Z,20.12
2019-05-23T01:52:43.605Z,17.05
2019-05-23T01:55:13.373Z,19.15
2019-05-23T01:57:42.522Z,18.02
2019-05-23T02:00:13.190Z,19.57
2019-05-23T02:02:42.621Z,19.73
2019-05-23T02:05:12.059Z,19.45
2019-05-23T02:07:42.027Z,18.37
2019-05-23T02:10:11.313Z,19.20
2019-05-23T02:12:41.068Z,19.17
2019-05-23T02:15:10.297Z,16.75
2019-05-23T02:17:41.089Z,17.10
2019-05-23T02:20:14.426Z,17.75
2019-05-23T02:22:44.607Z,19.35
2019-05-23T02:25:14.981Z,18.25
2019-05-23T02:27:44.802Z,18.95
2019-05-23T02:30:33.163Z,18.85
2019-05-23T02:32:47.934Z,17.52
2019-05-23T02:35:17.497Z,21.00
2019-05-23T02:37:50.717Z,21.27
2019-05-23T02:40:30.088Z,14.37
2019-05-23T02:43:17.178Z,16.85
2019-05-23T02:45:47.972Z,16.37
2019-05-23T02:48:24.601Z,18.65
2019-05-23T02:50:56.519Z,18.70
2019-05-23T02:53:26.997Z,19.80
2019-05-23T02:55:58.241Z,18.23
2019-05-23T02:58:37.822Z,19.98
2019-05-23T03:01:28.180Z,18.27
2019-05-23T03:03:58.005Z,17.05
2019-05-23T03:06:27.564Z,20.32
2019-05-23T03:08:57.580Z,22.55
2019-05-23T03:11:31.140Z,19.92
2019-05-23T03:14:00.896Z,23.65
2019-05-23T03:16:31.861Z,19.10
2019-05-23T03:19:03.782Z,21.82
2019-05-23T03:21:34.083Z,24.85
2019-05-23T03:24:04.791Z,23.83
2019-05-23T03:26:40.287Z,23.05
2019-05-23T03:29:11.008Z,21.75
2019-05-23T03:31:41.730Z,19.35
2019-05-23T03:34:12.407Z,20.05
2019-05-23T03:36:41.796Z,20.05
2019-05-23T03:39:11.817Z,21.48
2019-05-23T03:41:41.560Z,22.42
2019-05-23T03:44:10.768Z,20.10
2019-05-23T03:46:49.507Z,25.10
2019-05-23T03:49:20.097Z,22.80
2019-05-23T03:51:49.409Z,20.65
2019-05-23T03:54:18.762Z,21.52
2019-05-23T03:56:48.103Z,21.57
2019-05-23T03:59:27.614Z,21.30
2019-05-23T04:01:56.954Z,21.90
2019-05-23T04:04:26.546Z,22.10
2019-05-23T04:06:55.667Z,19.92
2019-05-23T04:09:24.894Z,18.42
2019-05-23T04:11:54.654Z,18.85
2019-05-23T04:14:24.107Z,18.92
2019-05-23T04:16:53.529Z,22.45
2019-05-23T04:19:22.990Z,22.90
2019-05-23T04:21:52.217Z,22.67
2019-05-23T04:24:21.481Z,22.77
2019-05-23T04:26:50.506Z,22.60
2019-05-23T04:29:19.740Z,22.93
2019-05-23T04:32:06.270Z,24.30
2019-05-23T04:34:19.788Z,21.40
2019-05-23T04:36:48.907Z,22.77
2019-05-23T04:39:18.033Z,19.90
2019-05-23T04:41:47.347Z,19.92
2019-05-23T04:44:16.987Z,22.70
2019-05-23T04:46:45.973Z,33.23
2019-05-23T04:49:15.880Z,23.40
2019-05-23T04:51:45.089Z,26.52
2019-05-23T04:54:14.262Z,24.12
2019-05-23T04:56:43.974Z,23.40
2019-05-23T04:59:13.067Z,24.90
2019-05-23T05:01:42.572Z,24.15
2019-05-23T05:04:11.739Z,22.35
2019-05-23T05:06:41.122Z,21.65
2019-05-23T05:09:11.716Z,23.32
2019-05-23T05:11:41.109Z,23.38
2019-05-23T05:14:29.474Z,29.50
2019-05-23T05:16:58.905Z,21.42
2019-05-23T05:19:28.032Z,23.02
2019-05-23T05:21:57.198Z,26.37
2019-05-23T05:24:26.350Z,31.57
2019-05-23T05:26:55.513Z,28.23
2019-05-23T05:29:24.772Z,35.23
2019-05-23T05:31:54.638Z,43.75
2019-05-23T05:34:23.768Z,34.05
2019-05-23T05:36:52.963Z,40.25
2019-05-23T05:39:22.871Z,37.23
2019-05-23T05:41:52.209Z,32.55
2019-05-23T05:44:21.441Z,35.88
2019-05-23T05:46:51.961Z,41.48
2019-05-23T05:49:22.008Z,34.73
2019-05-23T05:51:51.348Z,38.02
2019-05-23T05:54:20.684Z,38.50
2019-05-23T05:56:50.010Z,37.17
2019-05-23T05:59:19.112Z,33.18
2019-05-23T06:01:48.314Z,36.85
2019-05-23T06:04:17.574Z,39.08
2019-05-23T06:06:50.219Z,37.15
2019-05-23T06:09:20.707Z,40.23
2019-05-23T06:11:52.033Z,39.92
2019-05-23T06:14:20.799Z,38.33
2019-05-23T06:16:51.513Z,36.53
2019-05-23T06:19:20.653Z,37.55
2019-05-23T06:21:50.886Z,33.92
2019-05-23T06:24:39.705Z,36.53
2019-05-23T06:26:52.140Z,29.52
2019-05-23T06:29:23.507Z,32.98
2019-05-23T06:31:53.937Z,32.95
2019-05-23T06:34:23.383Z,39.23
2019-05-23T06:36:52.552Z,35.70
2019-05-23T06:39:22.162Z,33.73
2019-05-23T06:41:51.260Z,37.78
2019-05-23T06:44:21.085Z,40.92
2019-05-23T06:46:50.471Z,32.98
2019-05-23T06:49:19.670Z,36.85
2019-05-23T06:51:48.994Z,37.15
2019-05-23T06:54:17.940Z,37.53
2019-05-23T06:56:47.281Z,34.33
2019-05-23T06:59:16.430Z,33.63
2019-05-23T07:01:48.375Z,35.23
2019-05-23T07:04:17.974Z,35.70
2019-05-23T07:06:47.223Z,33.58
2019-05-23T07:09:17.643Z,31.55
2019-05-23T07:11:46.873Z,38.40
2019-05-23T07:14:16.216Z,33.53
2019-05-23T07:16:49.682Z,35.58
2019-05-23T07:19:16.473Z,36.20
2019-05-23T07:21:45.716Z,33.73
2019-05-23T07:24:14.993Z,36.03
2019-05-23T07:26:44.265Z,33.28
2019-05-23T07:29:13.533Z,32.98
2019-05-23T07:31:42.865Z,39.92
2019-05-23T07:34:11.540Z,33.20
2019-05-23T07:36:40.795Z,32.42
2019-05-23T07:39:11.678Z,31.52
2019-05-23T07:41:40.852Z,30.92
2019-05-23T07:44:11.337Z,29.80
2019-05-23T07:46:40.436Z,30.55
2019-05-23T07:49:09.797Z,33.98
2019-05-23T07:51:38.903Z,28.85
2019-05-23T07:54:12.445Z,25.45
2019-05-23T07:56:43.155Z,25.23
2019-05-23T07:59:12.453Z,27.25
2019-05-23T08:01:43.302Z,24.77
2019-05-23T08:04:20.995Z,25.12
2019-05-23T08:06:48.416Z,23.32
2019-05-23T08:09:15.718Z,23.32
2019-05-23T08:11:45.337Z,21.93
2019-05-23T08:14:14.587Z,23.45
2019-05-23T08:16:43.562Z,25.12
2019-05-23T08:19:19.200Z,21.10
2019-05-23T08:21:43.510Z,22.77
2019-05-23T08:24:12.907Z,23.20
2019-05-23T08:26:42.153Z,18.50
2019-05-23T08:29:25.600Z,17.67
2019-05-23T08:31:42.810Z,16.80
2019-05-23T08:34:12.098Z,16.23
2019-05-23T08:36:41.387Z,21.45
2019-05-23T08:39:12.783Z,19.40
2019-05-23T08:41:42.005Z,15.08
2019-05-23T08:44:11.696Z,20.25
2019-05-23T08:46:41.344Z,16.45
2019-05-23T08:49:12.307Z,15.83
2019-05-23T08:51:42.794Z,12.50
2019-05-23T08:54:12.305Z,12.65
2019-05-23T08:56:41.577Z,12.13
2019-05-23T08:59:11.168Z,12.25
2019-05-23T09:01:40.724Z,11.60
2019-05-23T09:04:10.606Z,12.55
2019-05-23T09:06:39.911Z,13.83
2019-05-23T09:09:28.396Z,14.58
2019-05-23T09:11:41.292Z,16.93
2019-05-23T09:14:10.658Z,13.58
2019-05-23T09:16:39.650Z,10.60
2019-05-23T09:19:08.959Z,14.33
2019-05-23T09:21:38.219Z,10.88
2019-05-23T09:24:07.659Z,11.95
2019-05-23T09:26:37.046Z,11.65
2019-05-23T09:29:06.605Z,11.78
2019-05-23T09:31:36.317Z,9.58
2019-05-23T09:34:05.697Z,10.20
2019-05-23T09:36:34.818Z,11.30
2019-05-23T09:39:05.780Z,10.20
2019-05-23T09:41:35.616Z,8.68
2019-05-23T09:44:05.012Z,9.33
2019-05-23T09:46:34.313Z,11.22
2019-05-23T09:49:03.580Z,10.70
2019-05-23T09:51:32.980Z,8.90
2019-05-23T09:54:02.234Z,14.10
2019-05-23T09:56:31.858Z,10.65
2019-05-23T09:59:01.004Z,12.33
2019-05-23T10:01:30.271Z,9.65
2019-05-23T10:03:59.567Z,11.05
2019-05-23T10:06:28.781Z,10.82
2019-05-23T10:08:58.010Z,10.03
2019-05-23T10:11:27.227Z,9.23
2019-05-23T10:13:56.614Z,11.05
2019-05-23T10:16:25.846Z,9.58
2019-05-23T10:18:54.999Z,11.63
2019-05-23T10:21:24.300Z,8.78
2019-05-23T10:23:53.510Z,10.15
2019-05-23T10:26:22.899Z,10.38
2019-05-23T10:28:52.147Z,12.28
2019-05-23T10:31:21.797Z,10.88
2019-05-23T10:33:51.113Z,9.95
2019-05-23T10:36:20.439Z,9.23
2019-05-23T10:38:49.713Z,10.50
2019-05-23T10:41:18.883Z,12.47
2019-05-23T10:43:48.114Z,11.30
2019-05-23T10:46:17.403Z,11.78
2019-05-23T10:48:46.610Z,10.35
2019-05-23T10:51:15.800Z,9.70
2019-05-23T10:53:45.103Z,7.85
2019-05-23T10:56:20.263Z,10.25
2019-05-23T10:58:46.342Z,8.58
2019-05-23T11:01:16.038Z,11.78
2019-05-23T11:03:45.295Z,9.38
2019-05-23T11:06:16.701Z,7.90
2019-05-23T11:08:45.535Z,9.08
2019-05-23T11:11:15.456Z,6.72
2019-05-23T11:13:44.673Z,6.97
2019-05-23T11:16:13.978Z,7.87
2019-05-23T11:18:43.349Z,14.70
2019-05-23T11:21:12.652Z,11.08
2019-05-23T11:23:49.306Z,7.42
2019-05-23T11:26:18.608Z,9.13
2019-05-23T11:28:48.014Z,9.35
2019-05-23T11:31:17.392Z,8.80
2019-05-23T11:33:46.545Z,7.87
2019-05-23T11:36:31.768Z,8.65
2019-05-23T11:38:46.665Z,9.10
2019-05-23T11:41:15.946Z,7.37
2019-05-23T11:43:46.021Z,6.97
2019-05-23T11:46:22.759Z,7.17
2019-05-23T11:48:52.562Z,8.00
2019-05-23T11:51:25.243Z,8.15
2019-05-23T11:54:06.590Z,8.00
2019-05-23T11:56:23.439Z,7.37
2019-05-23T11:58:52.796Z,6.75
2019-05-23T12:01:29.580Z,6.95
2019-05-23T12:04:00.280Z,7.70
2019-05-23T12:06:31.066Z,8.53
2019-05-23T12:09:00.184Z,9.93
2019-05-23T12:11:29.839Z,6.75
2019-05-23T12:13:58.799Z,8.18
2019-05-23T12:16:28.436Z,6.08
2019-05-23T12:18:57.839Z,6.55
2019-05-23T12:21:27.068Z,6.33
2019-05-23T12:23:56.315Z,7.12
2019-05-23T12:26:27.321Z,10.48
2019-05-23T12:28:56.406Z,8.35
2019-05-23T12:31:25.559Z,9.25
2019-05-23T12:33:54.748Z,9.70
2019-05-23T12:36:24.988Z,7.22
2019-05-23T12:38:54.263Z,7.30
2019-05-23T12:41:23.450Z,6.58
2019-05-23T12:43:52.714Z,8.28
2019-05-23T12:46:22.043Z,9.88
2019-05-23T12:49:04.882Z,8.80
2019-05-23T12:51:35.487Z,7.05
2019-05-23T12:54:04.933Z,6.90
2019-05-23T12:56:34.892Z,6.53
2019-05-23T12:59:06.078Z,7.20
2019-05-23T13:01:37.030Z,9.70
2019-05-23T13:04:10.161Z,7.67
2019-05-23T13:06:37.521Z,6.67
2019-05-23T13:09:09.462Z,7.80
2019-05-23T13:11:39.075Z,7.20
2019-05-23T13:14:09.033Z,6.28
2019-05-23T13:16:38.458Z,5.40
2019-05-23T13:19:07.821Z,7.22
2019-05-23T13:21:37.009Z,4.97
2019-05-23T13:24:06.197Z,5.47
2019-05-23T13:26:35.415Z,3.77
2019-05-23T13:29:04.564Z,3.08
2019-05-23T13:31:33.762Z,4.15
2019-05-23T13:34:03.105Z,3.85
2019-05-23T13:36:32.297Z,4.25
2019-05-23T13:39:01.473Z,6.03
2019-05-23T13:41:30.732Z,4.92
2019-05-23T13:44:00.038Z,2.45
2019-05-23T13:46:29.384Z,2.95
2019-05-23T13:48:58.986Z,3.10
2019-05-23T13:51:28.607Z,4.75
2019-05-23T13:53:57.769Z,5.75
2019-05-23T13:56:27.372Z,6.70
2019-05-23T13:58:56.657Z,2.52
2019-05-23T14:01:26.017Z,4.20
2019-05-23T14:03:55.858Z,4.50
2019-05-23T14:06:25.172Z,2.70
2019-05-23T14:08:54.413Z,2.95
2019-05-23T14:11:23.740Z,2.98
2019-05-23T14:14:00.206Z,3.40
2019-05-23T14:16:27.529Z,3.33
2019-05-23T14:18:56.718Z,2.58
2019-05-23T14:21:26.366Z,2.10
2019-05-23T14:23:55.644Z,6.95
2019-05-23T14:26:26.517Z,2.95
2019-05-23T14:28:55.981Z,3.20
2019-05-23T14:31:25.359Z,3.27
2019-05-23T14:33:56.017Z,3.52
2019-05-23T14:36:31.080Z,4.97
2019-05-23T14:38:58.796Z,4.28
2019-05-23T14:41:44.218Z,2.75
2019-05-23T14:44:00.686Z,2.65
2019-05-23T14:46:31.550Z,2.52
2019-05-23T14:49:08.449Z,2.90
2019-05-23T14:51:41.802Z,3.00
2019-05-23T14:54:22.032Z,4.92
2019-05-23T14:56:51.582Z,4.42
2019-05-23T14:59:21.126Z,2.25
2019-05-23T15:01:51.561Z,2.83
2019-05-23T15:04:21.225Z,4.05
2019-05-23T15:06:50.694Z,3.15
2019-05-23T15:09:21.480Z,2.58
2019-05-23T15:11:51.654Z,2.60
2019-05-23T15:14:20.982Z,3.12
2019-05-23T15:16:50.365Z,3.10
2019-05-23T15:19:38.685Z,3.25
2019-05-23T15:21:50.220Z,2.40
2019-05-23T15:24:19.671Z,2.72
2019-05-23T15:26:48.815Z,3.87
2019-05-23T15:29:18.433Z,2.62
2019-05-23T15:32:01.567Z,3.25
2019-05-23T15:34:18.941Z,5.17
2019-05-23T15:36:48.410Z,2.30
2019-05-23T15:39:18.855Z,3.17
2019-05-23T15:41:48.606Z,3.00
2019-05-23T15:44:26.944Z,5.05
2019-05-23T15:46:49.012Z,2.22
2019-05-23T15:49:18.473Z,3.98
2019-05-23T15:51:53.556Z,4.35
2019-05-23T15:54:21.472Z,2.80
2019-05-23T15:57:01.120Z,2.50
2019-05-23T15:59:34.903Z,2.42
2019-05-23T16:02:14.728Z,8.45
2019-05-23T16:04:44.285Z,2.35
2019-05-23T16:07:13.750Z,3.70
2019-05-23T16:09:42.849Z,2.30
2019-05-23T16:12:12.142Z,2.75
2019-05-23T16:14:41.389Z,1.80
2019-05-23T16:17:12.122Z,5.55
2019-05-23T16:19:42.309Z,2.37
2019-05-23T16:22:11.775Z,3.15
2019-05-23T16:24:41.038Z,2.45
2019-05-23T16:27:10.581Z,2.12
2019-05-23T16:29:41.059Z,3.83
2019-05-23T16:32:10.395Z,2.30
2019-05-23T16:34:39.551Z,2.60
2019-05-23T16:37:08.685Z,2.98
2019-05-23T16:39:47.654Z,3.87
2019-05-23T16:42:09.079Z,3.80
2019-05-23T16:44:38.323Z,4.35
2019-05-23T16:47:07.504Z,2.85
2019-05-23T16:49:36.672Z,3.75
2019-05-23T16:52:05.855Z,1.65
2019-05-23T16:54:36.430Z,2.40
2019-05-23T16:57:07.225Z,4.33
2019-05-23T16:59:37.887Z,3.00
2019-05-23T17:02:11.791Z,3.27
2019-05-23T17:04:42.861Z,4.83
2019-05-23T17:07:19.064Z,4.83
2019-05-23T17:10:09.020Z,3.80
2019-05-23T17:12:41.787Z,3.42
2019-05-23T17:15:15.707Z,7.03
2019-05-23T17:18:02.383Z,2.08
2019-05-23T17:20:38.620Z,3.70
2019-05-23T17:23:09.500Z,2.12
2019-05-23T17:25:49.132Z,4.65
2019-05-23T17:28:38.122Z,2.45
2019-05-23T17:31:11.644Z,3.20
2019-05-23T17:33:40.863Z,2.00
2019-05-23T17:36:10.258Z,1.90
2019-05-23T17:38:39.981Z,2.77
2019-05-23T17:41:10.169Z,5.95
2019-05-23T17:43:39.968Z,2.05
2019-05-23T17:46:10.276Z,2.65
2019-05-23T17:48:39.810Z,1.72
2019-05-23T17:51:09.368Z,2.35
2019-05-23T17:53:39.098Z,3.25
2019-05-23T17:56:27.735Z,3.08
2019-05-23T17:58:57.657Z,3.45
2019-05-23T18:01:27.069Z,2.50
2019-05-23T18:03:56.950Z,3.58
2019-05-23T18:06:27.050Z,3.35
2019-05-23T18:08:57.625Z,2.60
2019-05-23T18:11:46.696Z,5.72
2019-05-23T18:14:16.399Z,4.25
2019-05-23T18:16:46.958Z,3.05
2019-05-23T18:19:17.117Z,4.75
2019-05-23T18:21:47.640Z,3.47
2019-05-23T18:24:19.301Z,3.50
2019-05-23T18:26:49.293Z,3.35
2019-05-23T18:29:20.483Z,6.28
2019-05-23T18:31:52.184Z,2.58
2019-05-23T18:34:23.049Z,3.55
2019-05-23T18:36:54.688Z,5.55
2019-05-23T18:39:25.074Z,6.25
2019-05-23T18:41:55.411Z,4.92
2019-05-23T18:44:26.101Z,2.80
2019-05-23T18:46:57.344Z,3.27
2019-05-23T18:49:28.484Z,3.60
2019-05-23T18:51:59.328Z,2.85
2019-05-23T18:54:30.286Z,4.58
2019-05-23T18:57:00.482Z,3.98
2019-05-23T18:59:32.305Z,2.22
2019-05-23T19:02:05.570Z,1.77
2019-05-23T19:04:38.324Z,1.67
2019-05-23T19:07:11.720Z,3.35
2019-05-23T19:09:44.417Z,2.60
2019-05-23T19:12:16.793Z,1.62
2019-05-23T19:14:49.475Z,5.50
2019-05-23T19:17:22.518Z,2.33
2019-05-23T19:19:54.284Z,4.87
2019-05-23T19:22:27.091Z,3.47
2019-05-23T19:24:58.787Z,4.78
2019-05-23T19:27:31.938Z,3.90
2019-05-23T19:30:05.027Z,4.10
2019-05-23T19:32:36.067Z,5.87
2019-05-23T19:35:06.589Z,3.08
2019-05-23T19:37:37.736Z,3.67
2019-05-23T19:40:10.197Z,2.87
2019-05-23T19:42:42.176Z,4.25
2019-05-23T19:45:14.200Z,3.95
2019-05-23T19:47:45.809Z,3.12
2019-05-23T19:50:18.167Z,2.12
2019-05-23T19:52:52.120Z,1.47
2019-05-23T19:55:23.552Z,2.42
2019-05-23T19:57:56.876Z,1.98
2019-05-23T20:00:29.987Z,6.15
2019-05-23T20:03:03.983Z,3.65
2019-05-23T20:05:45.374Z,2.15
2019-05-23T20:08:18.398Z,2.25
2019-05-23T20:10:48.932Z,2.72
2019-05-23T20:13:19.679Z,2.08
2019-05-23T20:15:50.484Z,1.47
2019-05-23T20:18:21.619Z,2.62
2019-05-23T20:20:53.335Z,2.05
2019-05-23T20:23:24.239Z,2.58
2019-05-23T20:25:54.955Z,1.82
2019-05-23T20:28:25.983Z,1.98
2019-05-23T20:30:56.563Z,3.33
2019-05-23T20:33:27.388Z,1.80
2019-05-23T20:36:02.662Z,2.20
2019-05-23T20:38:33.721Z,2.77
2019-05-23T20:41:07.294Z,2.55
2019-05-23T20:43:37.968Z,4.70
2019-05-23T20:46:09.345Z,1.72
2019-05-23T20:48:40.172Z,3.45
2019-05-23T20:51:10.611Z,1.22
2019-05-23T20:53:41.329Z,1.57
2019-05-23T20:56:12.059Z,1.22
2019-05-23T20:58:42.362Z,2.02
2019-05-23T21:01:16.178Z,1.40
2019-05-23T21:03:45.406Z,4.30
2019-05-23T21:06:15.345Z,1.40
2019-05-23T21:08:44.504Z,1.75
2019-05-23T21:11:14.957Z,2.15
2019-05-23T21:13:44.478Z,1.35
2019-05-23T21:16:14.574Z,1.22
2019-05-23T21:18:43.910Z,2.35
2019-05-23T21:21:13.892Z,1.87
2019-05-23T21:23:43.200Z,1.27
2019-05-23T21:26:12.406Z,1.92
2019-05-23T21:28:41.737Z,1.37
2019-05-23T21:31:12.399Z,2.55
2019-05-23T21:33:41.815Z,3.72
2019-05-23T21:36:11.072Z,4.22
2019-05-23T21:38:40.383Z,1.82
2019-05-23T21:41:09.773Z,2.27
2019-05-23T21:43:38.796Z,1.07
2019-05-23T21:46:08.025Z,1.62
2019-05-23T21:48:37.111Z,2.05
2019-05-23T21:51:06.207Z,2.65
2019-05-23T21:53:35.212Z,1.87
2019-05-23T21:56:04.575Z,2.95
2019-05-23T21:58:33.774Z,2.25
2019-05-23T22:01:16.337Z,2.42
2019-05-23T22:03:52.853Z,2.45
2019-05-23T22:06:36.041Z,1.40
2019-05-23T22:09:07.764Z,3.52
2019-05-23T22:11:36.977Z,1.92
2019-05-23T22:14:06.488Z,3.05
2019-05-23T22:16:35.478Z,2.60
2019-05-23T22:19:05.329Z,3.42
2019-05-23T22:21:34.872Z,2.95
2019-05-23T22:24:04.151Z,3.05
2019-05-23T22:26:33.420Z,1.67
2019-05-23T22:29:02.600Z,1.45
2019-05-23T22:31:31.749Z,3.45
2019-05-23T22:34:02.555Z,1.72
2019-05-23T22:36:31.805Z,3.15
2019-05-23T22:39:00.808Z,2.70
2019-05-23T22:41:29.769Z,2.08
2019-05-23T22:43:58.968Z,3.65
2019-05-23T22:46:29.013Z,1.90
2019-05-23T22:48:58.112Z,3.20
2019-05-23T22:51:27.235Z,2.35
2019-05-23T22:53:56.228Z,2.15
2019-05-23T22:56:25.390Z,1.42
2019-05-23T22:58:54.637Z,2.00
2019-05-23T23:01:25.344Z,3.37
2019-05-23T23:03:54.546Z,1.40
2019-05-23T23:06:24.332Z,2.87
2019-05-23T23:08:53.471Z,1.60
2019-05-23T23:11:22.745Z,2.80
2019-05-23T23:13:51.998Z,2.92
2019-05-23T23:16:21.113Z,1.77
2019-05-23T23:18:50.253Z,4.12
2019-05-23T23:21:19.523Z,2.37
2019-05-23T23:23:48.720Z,2.30
2019-05-23T23:26:17.834Z,1.72
2019-05-23T23:28:47.095Z,3.15
2019-05-23T23:31:16.266Z,4.97
2019-05-23T23:33:45.430Z,2.12
2019-05-23T23:36:14.491Z,4.22
2019-05-23T23:38:43.605Z,1.65
2019-05-23T23:41:12.802Z,2.17
2019-05-23T23:43:57.972Z,4.05
2019-05-23T23:46:30.814Z,2.83
2019-05-23T23:49:17.737Z,2.17
2019-05-23T23:52:04.793Z,4.12
2019-05-23T23:54:51.366Z,6.47
2019-05-23T23:57:38.333Z,2.35
